Weather observations for the past three days for
Corning Municipal Airport
Imperial (Metric)
Date Time (cdt) Wind (mph) Vis. (mi.) Weather Sky Cond. Temperature (ºF) Relative Humidity Wind Chill (°F) Heat Index (°F) Pressure Precipitation (in)
Air Dwpt 6 hour altimeter (in) sea level (mb) 1 hr 3 hr 6 hr
Max. Min.
10 09:55 N 8 7.00 NULL NULL 71.6 59 65% 30.02 0.0
10 09:35 N 7 10.00 Fair CLR 69.8 59 69% 30.02 0.0
10 09:15 N 7 9.00 Fair CLR 69.8 59 69% 30.01 0.0
10 08:55 Calm 10.00 Fair CLR 68 59 73% 30 0.0
10 08:35 SE 5 10.00 Fair CLR 66.2 59 78% 29.99 0.0
10 08:15 Calm 9.00 Fair CLR 64.4 59 83% 30 0.0
10 07:55 Calm 10.00 Fair CLR 62.6 57.2 83% 29.99 0.0
10 07:35 S 5 10.00 Fair CLR 62.6 59 88% 30 0.0
10 07:15 Calm 10.00 Fair CLR 60.8 59 94% 29.99 0.0
10 06:55 SE 5 9.00 Fair CLR 60.8 57.2 88% 29.98 0.0
10 06:35 Calm 10.00 Fair CLR 59 59 100% 29.98 0.0
10 06:15 Calm 9.00 Fair CLR 59 59 100% 29.98 0.0
10 05:55 Calm 10.00 Fair CLR 59 57.2 94% 29.96 0.0
10 05:35 Calm 10.00 Fair CLR 59 57.2 94% 29.95 0.0
10 05:15 N 6 10.00 Fair CLR 59 57.2 94% 29.95 0.0
10 04:55 Calm 10.00 Fair CLR 59 57.2 94% 29.94 0.0
10 04:35 Calm 10.00 Fair CLR 59 57.2 94% 29.93 0.0
10 04:15 Calm 10.00 Fair CLR 59 57.2 94% 29.93 0.0
10 03:55 Calm 10.00 Fair CLR 59 55.4 88% 29.93 0.0
10 03:35 Calm 10.00 Fair CLR 60.8 57.2 88% 29.91 0.0
10 03:15 Calm 10.00 Fair CLR 60.8 55.4 83% 29.91 0.0
10 02:55 Calm 10.00 Fair CLR 60.8 55.4 83% 29.91 0.0
10 02:35 Calm 10.00 Fair CLR 60.8 55.4 83% 29.9 0.0
10 02:15 SW 3 10.00 Fair CLR 62.6 55.4 77% 29.91 0.0
10 01:55 S 5 10.00 Fair CLR 62.6 55.4 77% 29.91 0.0
10 01:35 SW 6 10.00 Fair CLR 62.6 55.4 77% 29.91 0.0
10 01:15 SW 6 10.00 Fair CLR 62.6 57.2 83% 29.92 0.0
10 00:55 SW 6 10.00 Fair CLR 64.4 55.4 73% 29.92 0.0
10 00:35 SW 6 10.00 Fair CLR 64.4 55.4 73% 29.91 0.0
10 00:15 SW 5 10.00 Fair CLR 64.4 55.4 73% 29.91 0.0
09 23:55 SW 7 9.00 Fair CLR 66.2 55.4 68% 29.9 0.0
09 23:35 SW 7 9.00 Fair CLR 66.2 55.4 68% 29.89 0.0
09 23:15 SW 6 10.00 Fair CLR 66.2 55.4 68% 29.89 0.0
09 22:55 SW 8 10.00 Fair CLR 68 53.6 60% 29.89 0.0
09 22:35 S 8 10.00 Fair CLR 68 53.6 60% 29.89 0.0
09 22:15 S 6 10.00 Fair CLR 69.8 53.6 57% 29.88 0.0
09 21:55 S 5 10.00 Fair CLR 69.8 53.6 57% 29.88 0.0
09 21:35 S 5 10.00 Fair CLR 69.8 55.4 60% 29.87 0.0
09 21:15 S 6 10.00 Fair CLR 69.8 57.2 64% 29.87 0.0
09 20:55 S 9 10.00 Fair CLR 73.4 55.4 53% 29.86 0.0
09 20:35 S 8 10.00 Fair CLR 73.4 53.6 50% 29.86 0.0
09 20:15 S 6 10.00 Fair CLR 75.2 53.6 47% 78 29.85 0.0
09 19:55 S 8 10.00 Fair CLR 77 51.8 42% 78 29.84 0.0
09 19:35 S 7 10.00 Fair CLR 78.8 51.8 39% 79 29.83 0.0
09 19:15 S 8 10.00 Fair CLR 80.6 51.8 37% 80 29.83 0.0
09 18:55 S 9 9.00 Fair CLR 82.4 50 32% 81 29.83 0.0
09 18:35 S 9 10.00 Fair CLR 82.4 51.8 35% 81 29.82 0.0
09 18:15 S 10 10.00 Fair CLR 84.2 53.6 35% 83 29.82 0.0
09 17:55 S 7 G 13 10.00 Fair CLR 84.2 53.6 35% 83 29.82 0.0
09 17:35 S 5 G 13 10.00 Fair CLR 84.2 53.6 35% 83 29.82 0.0
09 17:15 S 8 10.00 Fair CLR 84.2 53.6 35% 83 29.82 0.0
09 16:55 S 12 10.00 Fair CLR 84.2 55.4 37% 83 29.82 0.0
09 16:35 S 10 10.00 Fair CLR 84.2 55.4 37% 83 29.82 0.0
09 16:15 SW 12 10.00 Fair CLR 84.2 53.6 35% 83 29.82 0.0
09 15:55 W 7 10.00 Fair CLR 84.2 53.6 35% 83 29.83 0.0
09 15:35 Calm 10.00 Fair CLR 82.4 55.4 40% 82 29.83 0.0
09 15:15 Vrbl 5 9.00 Fair CLR 82.4 55.4 40% 82 29.83 0.0
09 14:55 Vrbl 5 G 12 10.00 Fair CLR 82.4 55.4 40% 82 29.84 0.0
09 14:35 SW 10 10.00 Fair CLR 82.4 59 45% 82 29.85 0.0
09 14:15 Vrbl 5 10.00 Fair CLR 80.6 57.2 45% 81 29.85 0.0
09 13:55 Calm 9.00 Fair CLR 80.6 53.6 39% 80 29.86 0.0
09 13:35 Calm 10.00 Fair CLR 78.8 57.2 48% 80 29.86 0.0
09 13:15 Vrbl 5 10.00 Fair CLR 78.8 59 51% 80 29.86 0.0
09 12:55 SW 6 10.00 Fair CLR 77 59 54% 79 29.86 0.0
09 12:35 SE 5 10.00 Fair CLR 77 60.8 57% 79 29.86 0.0
09 12:15 Vrbl 5 10.00 Fair CLR 75.2 60.8 61% 77 29.87 0.0
09 11:55 Calm 10.00 Fair CLR 73.4 60.8 65% 29.87 0.0
09 11:35 Calm 10.00 Fair CLR 73.4 60.8 65% 29.87 0.0
09 11:15 Vrbl 5 9.00 Fair CLR 71.6 60.8 69% 29.87 0.0
09 10:55 W 5 10.00 Fair CLR 71.6 59 65% 29.87 0.0
09 10:35 Calm 10.00 Fair CLR 69.8 59 69% 29.87 0.0
09 10:15 Calm 9.00 Fair CLR 68 60.8 78% 29.86 0.0
09 09:55 SW 3 10.00 Fair CLR 68 60.8 78% 29.87 0.0
09 09:35 SW 3 9.00 Fair CLR 66.2 60.8 83% 29.87 0.0
09 09:15 Calm 10.00 Fair CLR 66.2 59 78% 29.87 0.0
09 08:55 Vrbl 5 10.00 Fair CLR 64.4 59 83% 29.86 0.0
09 08:35 Calm 10.00 Fair CLR 62.6 59 88% 29.86 0.0
09 08:15 NW 3 10.00 Fair CLR 62.6 59 88% 29.85 0.0
09 07:55 W 5 10.00 Fair CLR 60.8 59 94% 29.85 0.0
09 07:35 W 6 10.00 Fair CLR 59 59 100% 29.84 0.0
09 07:15 W 5 10.00 Fair CLR 57.2 57.2 100% 29.83 0.0
09 06:55 W 3 10.00 Fair CLR 57.2 57.2 100% 29.82 0.0
09 06:35 W 5 10.00 Fair CLR 55.4 55.4 100% 29.82 0.0
09 06:15 W 3 10.00 Fair CLR 55.4 55.4 100% 29.82 0.0
09 05:55 W 6 10.00 Fair CLR 55.4 55.4 100% 29.81 0.0
09 05:35 W 6 10.00 Fair CLR 57.2 55.4 94% 29.81 0.0
09 05:15 W 7 10.00 Fair CLR 57.2 57.2 100% 29.81 0.0
09 04:55 SW 7 10.00 Fair CLR 57.2 57.2 100% 29.8 0.0
09 04:35 W 6 10.00 Fair CLR 57.2 57.2 100% 29.8 0.0
09 04:15 W 5 10.00 Fair CLR 59 55.4 88% 29.79 0.0
09 03:55 W 5 10.00 Fair CLR 59 57.2 94% 29.79 0.0
09 03:35 SW 5 10.00 Fair CLR 59 57.2 94% 29.79 0.0
09 03:15 Calm 10.00 Fair CLR 60.8 57.2 88% 29.79 0.0
09 02:55 NW 5 10.00 Fair CLR 62.6 55.4 77% 29.78 0.0
09 02:35 NW 7 10.00 Fair CLR 62.6 57.2 83% 29.78 0.0
09 02:15 W 5 10.00 A Few Clouds FEW100 62.6 57.2 83% 29.78 0.0
09 01:55 SW 7 10.00 Mostly Cloudy BKN100 64.4 57.2 78% 29.78 0.0
09 01:35 SW 7 10.00 Partly Cloudy SCT100 64.4 57.2 78% 29.79 0.0
09 01:15 W 10 10.00 Fair CLR 64.4 57.2 78% 29.8 0.0
09 00:55 SW 13 10.00 Fair CLR 66.2 57.2 73% 29.8 0.0
09 00:35 SW 14 10.00 Partly Cloudy FEW100 SCT120 66.2 55.4 68% 29.8 0.0
09 00:15 SW 13 10.00 A Few Clouds FEW120 66.2 57.2 73% 29.8 0.0
08 23:55 SW 10 10.00 A Few Clouds FEW120 66.2 57.2 73% 29.79 0.0
08 23:35 S 12 10.00 Partly Cloudy SCT120 66.2 57.2 73% 29.79 0.0
08 23:15 S 8 10.00 A Few Clouds FEW120 66.2 57.2 73% 29.79 0.0
08 22:55 S 9 10.00 Fair CLR 64.4 57.2 78% 29.81 0.0
08 22:35 S 10 10.00 Mostly Cloudy BKN110 66.2 55.4 68% 29.8 0.0
08 22:15 S 10 10.00 Mostly Cloudy BKN110 66.2 55.4 68% 29.81 0.0
08 21:55 S 8 10.00 A Few Clouds FEW110 66.2 55.4 68% 29.82 0.0
08 21:35 SW 8 10.00 Fair CLR 66.2 55.4 68% 29.83 0.0
08 21:15 SW 8 10.00 Fair CLR 66.2 55.4 68% 29.82 0.0
08 20:55 SW 10 10.00 Fair CLR 66.2 55.4 68% 29.81 0.0
08 20:35 S 13 10.00 Fair CLR 68 53.6 60% 29.8 0.0
08 20:15 S 13 10.00 Fair CLR 68 53.6 60% 29.8 0.0
08 19:55 S 13 G 18 10.00 Fair CLR 69.8 55.4 60% 29.8 0.0
08 19:35 S 14 10.00 Fair CLR 71.6 55.4 57% 29.81 0.0
08 19:15 S 15 10.00 Fair CLR 73.4 55.4 53% 29.81 0.0
08 18:55 S 17 10.00 Fair CLR 73.4 57.2 57% 29.82 0.0
08 18:35 SW 15 10.00 Fair CLR 75.2 57.2 54% 78 29.82 0.0
08 18:15 SW 17 10.00 Fair CLR 75.2 55.4 50% 78 29.82 0.0
08 17:55 S 13 10.00 Fair CLR 75.2 57.2 54% 78 29.82 0.0
08 17:35 S 16 G 22 10.00 Fair CLR 77 57.2 51% 79 29.82 0.0
08 17:15 SW 16 10.00 Fair CLR 77 55.4 47% 79 29.82 0.0
08 16:55 SW 14 10.00 Fair CLR 77 55.4 47% 79 29.82 0.0
08 16:35 S 14 G 22 10.00 Fair CLR 77 55.4 47% 79 29.83 0.0
08 16:15 SW 18 10.00 Fair CLR 77 53.6 44% 78 29.84 0.0
08 15:55 S 17 10.00 Fair CLR 77 55.4 47% 79 29.84 0.0
08 15:35 SW 15 10.00 Fair CLR 75.2 55.4 50% 78 29.85 0.0
08 15:15 SW 13 G 21 10.00 Fair CLR 75.2 55.4 50% 78 29.86 0.0
08 14:55 S 12 G 22 10.00 Fair CLR 75.2 55.4 50% 78 29.86 0.0
08 14:35 S 15 G 22 10.00 Fair CLR 75.2 55.4 50% 78 29.87 0.0
08 14:15 S 13 G 23 10.00 Fair CLR 75.2 57.2 54% 78 29.88 0.0
08 13:55 SW 17 9.00 Fair CLR 73.4 57.2 57% 29.89 0.0
08 13:35 S 16 G 25 10.00 Fair CLR 73.4 57.2 57% 29.91 0.0
08 13:15 SW 15 G 22 10.00 Fair CLR 73.4 55.4 53% 29.92 0.0
08 12:55 SW 17 G 25 6.00 Fair with Haze CLR 73.4 57.2 57% 29.93 0.0
08 12:35 SW 20 9.00 Fair CLR 71.6 57.2 61% 29.94 0.0
08 12:15 SW 17 G 23 10.00 Fair CLR 71.6 57.2 61% 29.95 0.0
08 11:55 SW 18 10.00 Fair CLR 71.6 57.2 61% 29.95 0.0
08 11:35 SW 20 9.00 Fair CLR 69.8 57.2 64% 29.96 0.0
08 11:15 S 15 10.00 Fair CLR 69.8 57.2 64% 29.97 0.0
08 10:55 SW 16 9.00 Fair CLR 68 57.2 69% 29.98 0.0
08 10:35 S 16 10.00 Fair CLR 68 57.2 69% 29.98 0.0
08 10:15 S 15 10.00 Fair CLR 68 57.2 69% 29.98 0.0
08 09:55 S 15 G 21 9.00 Fair CLR 66.2 55.4 68% 29.99 0.0
08 09:35 SW 13 10.00 Fair CLR 66.2 57.2 73% 30 0.0
08 09:15 S 14 10.00 Fair CLR 64.4 55.4 73% 30.01 0.0
08 08:55 S 12 10.00 Fair CLR 62.6 55.4 77% 30.01 0.0
08 08:35 SW 12 10.00 Fair CLR 60.8 55.4 83% 30.01 0.0
08 08:15 SW 10 10.00 Fair CLR 59 53.6 82% 30.02 0.0
08 07:55 SW 10 9.00 Fair CLR 59 53.6 82% 30.01 0.0
08 07:35 S 7 6.00 Fog/Mist CLR 57.2 53.6 88% 30.01 0.0
08 07:15 S 6 10.00 Fair CLR 55.4 53.6 94% 30.01 0.0
08 06:55 SW 3 10.00 Fair CLR 53.6 53.6 100% 30.01 0.0
08 06:35 SW 6 10.00 Fair CLR 51.8 51.8 100% 30 0.0
08 06:15 SW 6 10.00 Fair CLR 51.8 51.8 100% 29.99 0.0
08 05:55 SW 6 10.00 Fair CLR 51.8 51.8 100% 29.98 0.0
08 05:35 SW 6 10.00 Fair CLR 51.8 51.8 100% 29.97 0.0
08 05:15 S 5 10.00 Fair CLR 51.8 50 94% 29.98 0.0
08 04:55 S 6 10.00 Fair CLR 51.8 51.8 100% 29.98 0.0
08 04:35 S 6 10.00 Fair CLR 51.8 51.8 100% 29.98 0.0
08 04:15 S 7 10.00 Fair CLR 51.8 51.8 100% 29.98 0.0
08 03:55 SW 3 10.00 Fair CLR 51.8 51.8 100% 29.98 0.0
08 03:35 SW 3 10.00 Fair CLR 51.8 51.8 100% 29.98 0.0
08 03:15 S 3 10.00 Fair CLR 51.8 51.8 100% 29.99 0.0
08 02:55 Calm 10.00 Fair CLR 53.6 51.8 94% 29.99 0.0
08 02:35 SE 5 10.00 Fair CLR 53.6 51.8 94% 30 0.0
08 02:15 SE 5 10.00 Fair CLR 53.6 51.8 94% 30.01 0.0
08 01:55 SE 6 10.00 Fair CLR 53.6 51.8 94% 30.01 0.0
08 01:35 SE 6 10.00 Fair CLR 53.6 51.8 94% 30.01 0.0
08 01:15 SE 3 10.00 Fair CLR 55.4 51.8 88% 30.01 0.0
08 00:55 S 3 10.00 Fair CLR 55.4 50 82% 30.02 0.0
08 00:35 S 3 10.00 Fair CLR 55.4 50 82% 30.01 0.0
08 00:15 S 5 10.00 Fair CLR 55.4 51.8 88% 30.01 0.0
07 23:55 S 6 10.00 Fair CLR 55.4 51.8 88% 30.01 0.0
07 23:35 S 6 10.00 Fair CLR 57.2 50 77% 30.01 0.0
07 23:15 S 5 10.00 Fair CLR 57.2 51.8 82% 30.02 0.0
07 22:55 SE 6 10.00 Fair CLR 57.2 53.6 88% 30.01 0.0
07 22:35 S 6 10.00 Fair CLR 57.2 51.8 82% 30.01 0.0
07 22:15 S 5 10.00 Fair CLR 59 51.8 77% 30.01 0.0
07 21:55 S 7 10.00 Fair CLR 59 50 72% 30.01 0.0
07 21:35 S 8 10.00 Fair CLR 59 51.8 77% 30.01 0.0
07 21:15 S 5 10.00 Fair CLR 59 53.6 82% 29.99 0.0
07 20:55 S 5 10.00 Fair CLR 60.8 51.8 72% 29.99 0.0
07 20:35 S 6 10.00 Fair CLR 60.8 51.8 72% 29.98 0.0
07 20:15 S 6 10.00 Fair CLR 62.6 51.8 68% 29.98 0.0
07 19:55 SE 9 10.00 Fair CLR 62.6 51.8 68% 29.98 0.0
07 19:35 S 7 10.00 Fair CLR 64.4 50 60% 29.98 0.0
07 19:15 S 7 10.00 Fair CLR 66.2 48.2 52% 29.98 0.0
07 18:55 S 7 10.00 Fair CLR 66.2 46.4 49% 29.98 0.0
07 18:35 SE 9 10.00 Fair CLR 68 46.4 46% 29.98 0.0
07 18:15 SE 8 10.00 Fair CLR 68 48.2 49% 29.98 0.0
07 17:55 SE 10 10.00 Fair CLR 68 46.4 46% 29.98 0.0
07 17:35 S 8 10.00 Fair CLR 69.8 48.2 46% 29.98 0.0
07 17:15 S 7 10.00 Fair CLR 69.8 48.2 46% 29.99 0.0
07 16:55 Calm 8.00 Fair CLR 69.8 48.2 46% 29.99 0.0
07 16:35 Calm 10.00 Fair CLR 68 46.4 46% 29.99 0.0
07 16:15 Calm 9.00 Fair CLR 68 44.6 43% 29.99 0.0
07 15:15 S 5 10.00 Fair CLR 68 46.4 46% 30.01 0.0
07 14:55 SE 5 8.00 Fair CLR 66.2 44.6 46% 30.02 0.0
07 14:35 Calm 10.00 Fair CLR 66.2 44.6 46% 30.03 0.0
07 14:15 Vrbl 3 10.00 Fair CLR 66.2 42.8 43% 30.04 0.0
07 13:55 Calm 10.00 Fair CLR 66.2 42.8 43% 30.04 0.0
07 13:35 Calm 10.00 Fair CLR 64.4 41 43% 30.04 0.0
07 13:15 NE 7 10.00 Fair CLR 64.4 39.2 40% 30.05 0.0
07 12:55 E 5 10.00 Fair CLR 64.4 41 43% 30.06 0.0
07 12:35 Calm 10.00 Fair CLR 64.4 42.8 46% 30.07 0.0
07 12:15 NE 5 10.00 Fair CLR 64.4 44.6 49% 30.07 0.0
07 11:55 Vrbl 5 10.00 Fair CLR 62.6 44.6 52% 30.08 0.0
07 11:35 Calm 10.00 Fair CLR 62.6 42.8 49% 30.08 0.0
07 11:15 N 3 10.00 Fair CLR 62.6 42.8 49% 30.08 0.0
07 10:55 Calm 10.00 Fair CLR 60.8 41 48% 30.08 0.0
07 10:35 Vrbl 5 10.00 Fair CLR 60.8 44.6 55% 30.09 0.0
07 10:15 Calm 4.00 Fair with Haze CLR 60.8 44.6 55% 30.09 0.0
Date Time (cdt) Wind (mph) Vis. (mi.) Weather Sky Cond. Air Dwpt Max. Min. Relative Humidity Wind Chill (°F) Heat Index (°F) altimeter (in) sea level (mb) 1 hr 3 hr 6 hr
6 hour
Temperature (ºF) Pressure Precipitation (in)